sensor_id;sensor_type;location;lat;lon;timestamp;P1;durP1;ratioP1;P2;durP2;ratioP2
69083;SDS011;56185;48.526;9.044;2022-12-18T00:01:02;33.90;;;14.65;;
69083;SDS011;56185;48.526;9.044;2022-12-18T00:03:29;36.33;;;14.98;;
69083;SDS011;56185;48.526;9.044;2022-12-18T00:05:54;34.13;;;15.00;;
69083;SDS011;56185;48.526;9.044;2022-12-18T00:08:19;41.53;;;16.27;;
69083;SDS011;56185;48.526;9.044;2022-12-18T00:10:45;38.55;;;15.85;;
69083;SDS011;56185;48.526;9.044;2022-12-18T00:13:11;33.53;;;14.73;;
69083;SDS011;56185;48.526;9.044;2022-12-18T00:15:37;33.97;;;14.23;;
69083;SDS011;56185;48.526;9.044;2022-12-18T00:18:04;36.80;;;16.25;;
69083;SDS011;56185;48.526;9.044;2022-12-18T00:20:29;33.63;;;14.98;;
69083;SDS011;56185;48.526;9.044;2022-12-18T00:22:55;39.25;;;16.15;;
69083;SDS011;56185;48.526;9.044;2022-12-18T00:25:20;33.60;;;15.07;;
69083;SDS011;56185;48.526;9.044;2022-12-18T00:27:47;36.90;;;15.55;;
69083;SDS011;56185;48.526;9.044;2022-12-18T00:30:12;34.08;;;15.15;;
69083;SDS011;56185;48.526;9.044;2022-12-18T00:32:38;34.83;;;16.23;;
69083;SDS011;56185;48.526;9.044;2022-12-18T00:35:04;35.45;;;16.02;;
69083;SDS011;56185;48.526;9.044;2022-12-18T00:37:30;36.47;;;16.80;;
69083;SDS011;56185;48.526;9.044;2022-12-18T00:39:55;32.65;;;14.02;;
69083;SDS011;56185;48.526;9.044;2022-12-18T00:42:20;35.95;;;16.65;;
69083;SDS011;56185;48.526;9.044;2022-12-18T00:44:46;35.75;;;16.17;;
69083;SDS011;56185;48.526;9.044;2022-12-18T00:47:11;37.70;;;17.92;;
69083;SDS011;56185;48.526;9.044;2022-12-18T00:49:36;32.72;;;16.13;;
69083;SDS011;56185;48.526;9.044;2022-12-18T00:52:01;41.08;;;16.60;;
69083;SDS011;56185;48.526;9.044;2022-12-18T00:54:27;36.13;;;16.30;;
69083;SDS011;56185;48.526;9.044;2022-12-18T00:56:52;36.10;;;16.10;;
69083;SDS011;56185;48.526;9.044;2022-12-18T00:59:17;38.97;;;16.77;;
69083;SDS011;56185;48.526;9.044;2022-12-18T01:01:43;37.80;;;16.02;;
69083;SDS011;56185;48.526;9.044;2022-12-18T01:04:08;28.73;;;14.55;;
69083;SDS011;56185;48.526;9.044;2022-12-18T01:06:34;35.47;;;15.75;;
69083;SDS011;56185;48.526;9.044;2022-12-18T01:08:59;39.58;;;16.05;;
69083;SDS011;56185;48.526;9.044;2022-12-18T01:11:24;30.48;;;14.48;;
69083;SDS011;56185;48.526;9.044;2022-12-18T01:13:51;37.80;;;16.15;;
69083;SDS011;56185;48.526;9.044;2022-12-18T01:16:17;37.28;;;16.35;;
69083;SDS011;56185;48.526;9.044;2022-12-18T01:18:43;32.88;;;15.27;;
69083;SDS011;56185;48.526;9.044;2022-12-18T01:21:09;37.95;;;17.00;;
69083;SDS011;56185;48.526;9.044;2022-12-18T01:23:36;32.95;;;14.57;;
69083;SDS011;56185;48.526;9.044;2022-12-18T01:26:05;34.38;;;16.45;;
69083;SDS011;56185;48.526;9.044;2022-12-18T01:28:34;32.47;;;14.70;;
69083;SDS011;56185;48.526;9.044;2022-12-18T01:33:35;33.78;;;14.98;;
69083;SDS011;56185;48.526;9.044;2022-12-18T01:36:01;36.38;;;15.20;;
69083;SDS011;56185;48.526;9.044;2022-12-18T01:38:26;33.60;;;14.65;;
69083;SDS011;56185;48.526;9.044;2022-12-18T01:41:00;32.63;;;15.45;;
69083;SDS011;56185;48.526;9.044;2022-12-18T01:43:42;31.65;;;13.63;;
69083;SDS011;56185;48.526;9.044;2022-12-18T01:46:10;26.70;;;13.13;;
69083;SDS011;56185;48.526;9.044;2022-12-18T01:48:36;29.90;;;14.95;;
69083;SDS011;56185;48.526;9.044;2022-12-18T01:51:01;29.73;;;13.63;;
69083;SDS011;56185;48.526;9.044;2022-12-18T01:53:27;34.03;;;14.95;;
69083;SDS011;56185;48.526;9.044;2022-12-18T01:55:53;30.98;;;14.48;;
69083;SDS011;56185;48.526;9.044;2022-12-18T01:58:27;40.72;;;15.07;;
69083;SDS011;56185;48.526;9.044;2022-12-18T02:01:01;28.60;;;13.27;;
69083;SDS011;56185;48.526;9.044;2022-12-18T02:03:27;29.45;;;13.82;;
69083;SDS011;56185;48.526;9.044;2022-12-18T02:11:37;31.98;;;15.82;;
69083;SDS011;56185;48.526;9.044;2022-12-18T02:16:58;31.48;;;14.77;;
69083;SDS011;56185;48.526;9.044;2022-12-18T02:24:29;28.65;;;14.60;;
69083;SDS011;56185;48.526;9.044;2022-12-18T02:27:04;33.42;;;15.38;;
69083;SDS011;56185;48.526;9.044;2022-12-18T02:29:34;28.67;;;12.98;;
69083;SDS011;56185;48.526;9.044;2022-12-18T02:32:05;35.92;;;15.55;;
69083;SDS011;56185;48.526;9.044;2022-12-18T02:34:36;36.13;;;14.32;;
69083;SDS011;56185;48.526;9.044;2022-12-18T02:37:04;37.42;;;15.63;;
69083;SDS011;56185;48.526;9.044;2022-12-18T02:39:33;40.03;;;15.73;;
69083;SDS011;56185;48.526;9.044;2022-12-18T02:41:59;37.80;;;16.80;;
69083;SDS011;56185;48.526;9.044;2022-12-18T02:44:25;36.38;;;15.88;;
69083;SDS011;56185;48.526;9.044;2022-12-18T02:46:52;40.88;;;17.17;;
69083;SDS011;56185;48.526;9.044;2022-12-18T02:57:40;35.45;;;15.07;;
69083;SDS011;56185;48.526;9.044;2022-12-18T03:02:50;33.78;;;15.40;;
69083;SDS011;56185;48.526;9.044;2022-12-18T03:05:22;33.70;;;15.32;;
69083;SDS011;56185;48.526;9.044;2022-12-18T03:07:58;33.03;;;14.95;;
69083;SDS011;56185;48.526;9.044;2022-12-18T03:10:31;32.38;;;14.68;;
69083;SDS011;56185;48.526;9.044;2022-12-18T03:13:02;39.00;;;15.98;;
69083;SDS011;56185;48.526;9.044;2022-12-18T03:15:31;35.42;;;15.07;;
69083;SDS011;56185;48.526;9.044;2022-12-18T03:18:11;31.67;;;13.85;;
69083;SDS011;56185;48.526;9.044;2022-12-18T03:20:40;33.65;;;14.93;;
69083;SDS011;56185;48.526;9.044;2022-12-18T03:23:11;31.65;;;15.25;;
69083;SDS011;56185;48.526;9.044;2022-12-18T03:25:41;31.20;;;14.55;;
69083;SDS011;56185;48.526;9.044;2022-12-18T03:28:09;30.63;;;14.73;;
69083;SDS011;56185;48.526;9.044;2022-12-18T03:30:38;33.75;;;14.57;;
69083;SDS011;56185;48.526;9.044;2022-12-18T03:33:08;32.45;;;15.70;;
69083;SDS011;56185;48.526;9.044;2022-12-18T03:35:39;31.35;;;15.02;;
69083;SDS011;56185;48.526;9.044;2022-12-18T03:38:07;36.75;;;15.20;;
69083;SDS011;56185;48.526;9.044;2022-12-18T03:40:45;32.78;;;15.13;;
69083;SDS011;56185;48.526;9.044;2022-12-18T03:46:15;34.15;;;14.70;;
69083;SDS011;56185;48.526;9.044;2022-12-18T03:48:52;38.60;;;16.23;;
69083;SDS011;56185;48.526;9.044;2022-12-18T03:51:40;37.55;;;16.33;;
69083;SDS011;56185;48.526;9.044;2022-12-18T03:54:13;44.28;;;16.92;;
69083;SDS011;56185;48.526;9.044;2022-12-18T03:56:40;34.08;;;15.48;;
69083;SDS011;56185;48.526;9.044;2022-12-18T03:59:08;37.97;;;14.68;;
69083;SDS011;56185;48.526;9.044;2022-12-18T04:01:40;44.67;;;17.15;;
69083;SDS011;56185;48.526;9.044;2022-12-18T04:04:10;40.72;;;16.50;;
69083;SDS011;56185;48.526;9.044;2022-12-18T04:06:37;37.78;;;16.05;;
69083;SDS011;56185;48.526;9.044;2022-12-18T04:09:04;42.92;;;17.55;;
69083;SDS011;56185;48.526;9.044;2022-12-18T04:11:29;42.20;;;16.40;;
69083;SDS011;56185;48.526;9.044;2022-12-18T04:13:55;40.13;;;17.20;;
69083;SDS011;56185;48.526;9.044;2022-12-18T04:16:21;37.40;;;15.73;;
69083;SDS011;56185;48.526;9.044;2022-12-18T04:18:46;38.92;;;16.40;;
69083;SDS011;56185;48.526;9.044;2022-12-18T04:21:11;46.55;;;17.55;;
69083;SDS011;56185;48.526;9.044;2022-12-18T04:23:37;47.35;;;17.83;;
69083;SDS011;56185;48.526;9.044;2022-12-18T04:26:02;39.58;;;15.70;;
69083;SDS011;56185;48.526;9.044;2022-12-18T04:28:27;43.72;;;16.35;;
69083;SDS011;56185;48.526;9.044;2022-12-18T04:30:53;53.10;;;17.95;;
69083;SDS011;56185;48.526;9.044;2022-12-18T04:33:18;38.83;;;17.00;;
69083;SDS011;56185;48.526;9.044;2022-12-18T04:35:43;45.95;;;17.17;;
69083;SDS011;56185;48.526;9.044;2022-12-18T04:38:09;42.45;;;17.55;;
69083;SDS011;56185;48.526;9.044;2022-12-18T04:40:34;44.60;;;18.20;;
69083;SDS011;56185;48.526;9.044;2022-12-18T04:43:00;46.22;;;18.67;;
69083;SDS011;56185;48.526;9.044;2022-12-18T04:45:25;43.55;;;17.00;;
69083;SDS011;56185;48.526;9.044;2022-12-18T04:47:51;34.40;;;15.40;;
69083;SDS011;56185;48.526;9.044;2022-12-18T04:50:16;39.42;;;15.95;;
69083;SDS011;56185;48.526;9.044;2022-12-18T04:52:41;35.92;;;16.75;;
69083;SDS011;56185;48.526;9.044;2022-12-18T04:55:07;39.22;;;16.02;;
69083;SDS011;56185;48.526;9.044;2022-12-18T04:57:32;46.88;;;16.83;;
69083;SDS011;56185;48.526;9.044;2022-12-18T04:59:57;44.42;;;16.98;;
69083;SDS011;56185;48.526;9.044;2022-12-18T05:02:22;46.97;;;17.63;;
69083;SDS011;56185;48.526;9.044;2022-12-18T05:04:48;43.88;;;17.17;;
69083;SDS011;56185;48.526;9.044;2022-12-18T05:07:13;42.33;;;16.52;;
69083;SDS011;56185;48.526;9.044;2022-12-18T05:09:38;41.17;;;17.02;;
69083;SDS011;56185;48.526;9.044;2022-12-18T05:12:03;37.20;;;16.42;;
69083;SDS011;56185;48.526;9.044;2022-12-18T05:14:29;42.42;;;17.48;;
69083;SDS011;56185;48.526;9.044;2022-12-18T05:16:54;43.83;;;17.45;;
69083;SDS011;56185;48.526;9.044;2022-12-18T05:19:20;44.38;;;15.73;;
69083;SDS011;56185;48.526;9.044;2022-12-18T05:21:45;48.50;;;17.25;;
69083;SDS011;56185;48.526;9.044;2022-12-18T05:24:10;44.97;;;17.40;;
69083;SDS011;56185;48.526;9.044;2022-12-18T05:26:35;41.65;;;17.10;;
69083;SDS011;56185;48.526;9.044;2022-12-18T05:29:01;38.20;;;15.70;;
69083;SDS011;56185;48.526;9.044;2022-12-18T05:31:26;47.35;;;17.15;;
69083;SDS011;56185;48.526;9.044;2022-12-18T05:33:51;45.10;;;17.02;;
69083;SDS011;56185;48.526;9.044;2022-12-18T05:36:16;39.92;;;16.10;;
69083;SDS011;56185;48.526;9.044;2022-12-18T05:38:42;45.88;;;18.02;;
69083;SDS011;56185;48.526;9.044;2022-12-18T05:41:07;47.53;;;16.92;;
69083;SDS011;56185;48.526;9.044;2022-12-18T05:43:34;38.35;;;16.88;;
69083;SDS011;56185;48.526;9.044;2022-12-18T05:46:07;38.10;;;15.52;;
69083;SDS011;56185;48.526;9.044;2022-12-18T05:48:34;40.58;;;16.83;;
69083;SDS011;56185;48.526;9.044;2022-12-18T05:51:03;44.85;;;16.65;;
69083;SDS011;56185;48.526;9.044;2022-12-18T05:53:30;43.33;;;16.45;;
69083;SDS011;56185;48.526;9.044;2022-12-18T05:55:59;40.58;;;16.23;;
69083;SDS011;56185;48.526;9.044;2022-12-18T05:58:25;39.08;;;15.48;;
69083;SDS011;56185;48.526;9.044;2022-12-18T06:00:50;40.03;;;14.52;;
69083;SDS011;56185;48.526;9.044;2022-12-18T06:03:15;44.38;;;16.63;;
69083;SDS011;56185;48.526;9.044;2022-12-18T06:05:42;46.80;;;18.65;;
69083;SDS011;56185;48.526;9.044;2022-12-18T06:08:09;43.72;;;17.30;;
69083;SDS011;56185;48.526;9.044;2022-12-18T06:10:35;40.05;;;16.25;;
69083;SDS011;56185;48.526;9.044;2022-12-18T06:13:01;40.45;;;15.63;;
69083;SDS011;56185;48.526;9.044;2022-12-18T06:15:27;42.78;;;15.38;;
69083;SDS011;56185;48.526;9.044;2022-12-18T06:17:52;49.63;;;18.05;;
69083;SDS011;56185;48.526;9.044;2022-12-18T06:20:18;37.88;;;16.75;;
69083;SDS011;56185;48.526;9.044;2022-12-18T06:22:43;38.30;;;15.98;;
69083;SDS011;56185;48.526;9.044;2022-12-18T06:25:08;40.63;;;15.98;;
69083;SDS011;56185;48.526;9.044;2022-12-18T06:27:34;43.25;;;15.30;;
69083;SDS011;56185;48.526;9.044;2022-12-18T06:29:59;42.70;;;16.38;;
69083;SDS011;56185;48.526;9.044;2022-12-18T06:32:25;38.47;;;15.63;;
69083;SDS011;56185;48.526;9.044;2022-12-18T06:34:51;39.55;;;15.65;;
69083;SDS011;56185;48.526;9.044;2022-12-18T06:37:17;35.67;;;14.68;;
69083;SDS011;56185;48.526;9.044;2022-12-18T06:39:42;38.47;;;15.30;;
69083;SDS011;56185;48.526;9.044;2022-12-18T06:42:07;44.65;;;16.40;;
69083;SDS011;56185;48.526;9.044;2022-12-18T06:44:32;37.13;;;15.13;;
69083;SDS011;56185;48.526;9.044;2022-12-18T06:46:58;34.83;;;14.40;;
69083;SDS011;56185;48.526;9.044;2022-12-18T06:49:23;32.10;;;12.40;;
69083;SDS011;56185;48.526;9.044;2022-12-18T06:51:48;30.63;;;13.57;;
69083;SDS011;56185;48.526;9.044;2022-12-18T06:54:13;30.33;;;13.70;;
69083;SDS011;56185;48.526;9.044;2022-12-18T06:56:39;30.27;;;13.52;;
69083;SDS011;56185;48.526;9.044;2022-12-18T06:59:04;35.78;;;14.13;;
69083;SDS011;56185;48.526;9.044;2022-12-18T07:01:29;37.28;;;14.55;;
69083;SDS011;56185;48.526;9.044;2022-12-18T07:03:55;36.47;;;14.68;;
69083;SDS011;56185;48.526;9.044;2022-12-18T07:06:22;34.60;;;14.65;;
69083;SDS011;56185;48.526;9.044;2022-12-18T07:08:49;39.70;;;15.10;;
69083;SDS011;56185;48.526;9.044;2022-12-18T07:11:16;44.13;;;15.65;;
69083;SDS011;56185;48.526;9.044;2022-12-18T07:13:42;40.60;;;15.70;;
69083;SDS011;56185;48.526;9.044;2022-12-18T07:16:08;35.80;;;15.07;;
69083;SDS011;56185;48.526;9.044;2022-12-18T07:18:35;43.58;;;14.63;;
69083;SDS011;56185;48.526;9.044;2022-12-18T07:21:05;37.65;;;15.48;;
69083;SDS011;56185;48.526;9.044;2022-12-18T07:23:31;37.53;;;14.82;;
69083;SDS011;56185;48.526;9.044;2022-12-18T07:26:03;38.13;;;14.85;;
69083;SDS011;56185;48.526;9.044;2022-12-18T07:28:33;40.53;;;15.80;;
69083;SDS011;56185;48.526;9.044;2022-12-18T07:31:06;41.70;;;15.25;;
69083;SDS011;56185;48.526;9.044;2022-12-18T07:33:33;42.17;;;15.43;;
69083;SDS011;56185;48.526;9.044;2022-12-18T07:36:02;36.35;;;14.85;;
69083;SDS011;56185;48.526;9.044;2022-12-18T07:38:29;34.60;;;14.10;;
69083;SDS011;56185;48.526;9.044;2022-12-18T07:40:59;38.88;;;14.55;;
69083;SDS011;56185;48.526;9.044;2022-12-18T07:43:28;32.22;;;14.63;;
69083;SDS011;56185;48.526;9.044;2022-12-18T07:45:54;40.72;;;15.48;;
69083;SDS011;56185;48.526;9.044;2022-12-18T07:48:19;33.72;;;14.77;;
69083;SDS011;56185;48.526;9.044;2022-12-18T07:50:44;38.03;;;15.23;;
69083;SDS011;56185;48.526;9.044;2022-12-18T07:53:10;38.10;;;14.38;;
69083;SDS011;56185;48.526;9.044;2022-12-18T07:55:35;38.10;;;15.43;;
69083;SDS011;56185;48.526;9.044;2022-12-18T07:58:01;36.92;;;14.80;;
69083;SDS011;56185;48.526;9.044;2022-12-18T08:00:27;41.00;;;17.15;;
69083;SDS011;56185;48.526;9.044;2022-12-18T08:02:53;34.88;;;14.63;;
69083;SDS011;56185;48.526;9.044;2022-12-18T08:05:18;32.70;;;14.55;;
69083;SDS011;56185;48.526;9.044;2022-12-18T08:07:43;35.58;;;14.15;;
69083;SDS011;56185;48.526;9.044;2022-12-18T08:10:09;36.00;;;14.45;;
69083;SDS011;56185;48.526;9.044;2022-12-18T08:12:34;41.17;;;14.00;;
69083;SDS011;56185;48.526;9.044;2022-12-18T08:14:59;39.47;;;15.35;;
69083;SDS011;56185;48.526;9.044;2022-12-18T08:17:25;34.58;;;14.55;;
69083;SDS011;56185;48.526;9.044;2022-12-18T08:19:50;32.60;;;13.13;;
69083;SDS011;56185;48.526;9.044;2022-12-18T08:22:15;36.13;;;14.38;;
69083;SDS011;56185;48.526;9.044;2022-12-18T08:24:41;28.70;;;13.48;;
69083;SDS011;56185;48.526;9.044;2022-12-18T08:27:06;36.60;;;15.85;;
69083;SDS011;56185;48.526;9.044;2022-12-18T08:29:31;33.70;;;13.88;;
69083;SDS011;56185;48.526;9.044;2022-12-18T08:31:57;33.40;;;14.18;;
69083;SDS011;56185;48.526;9.044;2022-12-18T08:34:22;30.90;;;14.48;;
69083;SDS011;56185;48.526;9.044;2022-12-18T08:36:47;35.50;;;15.45;;
69083;SDS011;56185;48.526;9.044;2022-12-18T08:39:12;32.55;;;13.82;;
69083;SDS011;56185;48.526;9.044;2022-12-18T08:41:38;35.53;;;14.48;;
69083;SDS011;56185;48.526;9.044;2022-12-18T08:44:03;40.92;;;16.45;;
69083;SDS011;56185;48.526;9.044;2022-12-18T08:46:36;40.13;;;15.68;;
69083;SDS011;56185;48.526;9.044;2022-12-18T08:49:09;40.40;;;15.88;;
69083;SDS011;56185;48.526;9.044;2022-12-18T08:51:35;30.98;;;13.15;;
69083;SDS011;56185;48.526;9.044;2022-12-18T08:54:00;38.88;;;13.98;;
69083;SDS011;56185;48.526;9.044;2022-12-18T08:56:26;34.33;;;14.93;;
69083;SDS011;56185;48.526;9.044;2022-12-18T08:58:52;31.42;;;14.27;;
69083;SDS011;56185;48.526;9.044;2022-12-18T09:01:18;35.63;;;15.00;;
69083;SDS011;56185;48.526;9.044;2022-12-18T09:03:44;31.83;;;14.27;;
69083;SDS011;56185;48.526;9.044;2022-12-18T09:06:16;30.40;;;14.05;;
69083;SDS011;56185;48.526;9.044;2022-12-18T09:08:43;32.85;;;14.35;;
69083;SDS011;56185;48.526;9.044;2022-12-18T09:11:13;35.65;;;14.82;;
69083;SDS011;56185;48.526;9.044;2022-12-18T09:13:50;30.83;;;14.55;;
69083;SDS011;56185;48.526;9.044;2022-12-18T09:16:16;39.33;;;16.02;;
69083;SDS011;56185;48.526;9.044;2022-12-18T09:18:41;36.97;;;15.45;;
69083;SDS011;56185;48.526;9.044;2022-12-18T09:21:07;37.30;;;16.08;;
69083;SDS011;56185;48.526;9.044;2022-12-18T09:23:37;41.70;;;16.75;;
69083;SDS011;56185;48.526;9.044;2022-12-18T09:26:03;42.05;;;16.20;;
69083;SDS011;56185;48.526;9.044;2022-12-18T09:28:29;43.67;;;17.83;;
69083;SDS011;56185;48.526;9.044;2022-12-18T09:30:54;40.15;;;17.33;;
69083;SDS011;56185;48.526;9.044;2022-12-18T09:33:19;42.53;;;16.58;;
69083;SDS011;56185;48.526;9.044;2022-12-18T09:35:45;34.63;;;16.42;;
69083;SDS011;56185;48.526;9.044;2022-12-18T09:38:12;36.85;;;17.27;;
69083;SDS011;56185;48.526;9.044;2022-12-18T09:40:45;39.20;;;16.98;;
69083;SDS011;56185;48.526;9.044;2022-12-18T09:43:17;45.30;;;16.73;;
69083;SDS011;56185;48.526;9.044;2022-12-18T09:45:44;42.55;;;17.42;;
69083;SDS011;56185;48.526;9.044;2022-12-18T09:48:19;32.92;;;15.82;;
69083;SDS011;56185;48.526;9.044;2022-12-18T09:50:48;40.92;;;16.70;;
69083;SDS011;56185;48.526;9.044;2022-12-18T09:53:17;41.65;;;17.25;;
69083;SDS011;56185;48.526;9.044;2022-12-18T09:55:46;40.90;;;16.20;;
69083;SDS011;56185;48.526;9.044;2022-12-18T09:58:20;38.58;;;17.63;;
69083;SDS011;56185;48.526;9.044;2022-12-18T10:00:53;45.15;;;18.17;;
69083;SDS011;56185;48.526;9.044;2022-12-18T10:03:19;38.42;;;17.42;;
69083;SDS011;56185;48.526;9.044;2022-12-18T10:11:14;40.03;;;17.58;;
69083;SDS011;56185;48.526;9.044;2022-12-18T10:13:49;42.00;;;16.25;;
69083;SDS011;56185;48.526;9.044;2022-12-18T10:16:43;37.15;;;16.95;;
69083;SDS011;56185;48.526;9.044;2022-12-18T10:20:13;43.00;;;16.50;;
69083;SDS011;56185;48.526;9.044;2022-12-18T10:27:31;42.83;;;17.67;;
69083;SDS011;56185;48.526;9.044;2022-12-18T10:29:57;43.50;;;18.05;;
69083;SDS011;56185;48.526;9.044;2022-12-18T10:32:28;39.80;;;18.08;;
69083;SDS011;56185;48.526;9.044;2022-12-18T10:34:55;41.17;;;18.77;;
69083;SDS011;56185;48.526;9.044;2022-12-18T10:37:23;47.83;;;19.55;;
69083;SDS011;56185;48.526;9.044;2022-12-18T10:40:09;39.03;;;16.63;;
69083;SDS011;56185;48.526;9.044;2022-12-18T10:42:35;42.47;;;18.15;;
69083;SDS011;56185;48.526;9.044;2022-12-18T10:45:01;39.13;;;17.15;;
69083;SDS011;56185;48.526;9.044;2022-12-18T10:47:30;50.03;;;20.20;;
69083;SDS011;56185;48.526;9.044;2022-12-18T10:49:56;45.97;;;17.50;;
69083;SDS011;56185;48.526;9.044;2022-12-18T10:52:22;45.25;;;18.73;;
69083;SDS011;56185;48.526;9.044;2022-12-18T10:54:57;42.83;;;18.88;;
69083;SDS011;56185;48.526;9.044;2022-12-18T11:00:03;42.33;;;18.08;;
69083;SDS011;56185;48.526;9.044;2022-12-18T11:02:45;39.85;;;18.55;;
69083;SDS011;56185;48.526;9.044;2022-12-18T11:07:49;43.97;;;18.77;;
69083;SDS011;56185;48.526;9.044;2022-12-18T11:10:16;48.03;;;20.08;;
69083;SDS011;56185;48.526;9.044;2022-12-18T11:12:43;50.35;;;20.45;;
69083;SDS011;56185;48.526;9.044;2022-12-18T11:15:42;52.25;;;20.05;;
69083;SDS011;56185;48.526;9.044;2022-12-18T11:18:00;45.78;;;20.45;;
69083;SDS011;56185;48.526;9.044;2022-12-18T11:20:35;48.30;;;20.90;;
69083;SDS011;56185;48.526;9.044;2022-12-18T11:23:01;45.00;;;20.80;;
69083;SDS011;56185;48.526;9.044;2022-12-18T11:25:29;46.58;;;20.83;;
69083;SDS011;56185;48.526;9.044;2022-12-18T11:27:56;45.22;;;21.25;;
69083;SDS011;56185;48.526;9.044;2022-12-18T11:30:26;51.13;;;22.05;;
69083;SDS011;56185;48.526;9.044;2022-12-18T11:33:15;46.67;;;22.65;;
69083;SDS011;56185;48.526;9.044;2022-12-18T11:35:45;48.58;;;22.67;;
69083;SDS011;56185;48.526;9.044;2022-12-18T11:41:05;55.83;;;23.33;;
69083;SDS011;56185;48.526;9.044;2022-12-18T11:43:44;54.03;;;23.92;;
69083;SDS011;56185;48.526;9.044;2022-12-18T11:46:19;50.92;;;23.15;;
69083;SDS011;56185;48.526;9.044;2022-12-18T11:48:57;51.20;;;23.08;;
69083;SDS011;56185;48.526;9.044;2022-12-18T11:51:28;46.53;;;22.65;;
69083;SDS011;56185;48.526;9.044;2022-12-18T11:54:00;48.63;;;22.58;;
69083;SDS011;56185;48.526;9.044;2022-12-18T11:56:35;54.17;;;25.17;;
69083;SDS011;56185;48.526;9.044;2022-12-18T11:59:16;60.67;;;25.10;;
69083;SDS011;56185;48.526;9.044;2022-12-18T12:01:48;52.40;;;23.92;;
69083;SDS011;56185;48.526;9.044;2022-12-18T12:09:40;49.85;;;22.70;;
69083;SDS011;56185;48.526;9.044;2022-12-18T12:12:25;52.05;;;23.15;;
69083;SDS011;56185;48.526;9.044;2022-12-18T12:18:05;57.10;;;24.52;;
69083;SDS011;56185;48.526;9.044;2022-12-18T12:23:23;60.08;;;25.73;;
69083;SDS011;56185;48.526;9.044;2022-12-18T12:26:01;52.25;;;23.05;;
69083;SDS011;56185;48.526;9.044;2022-12-18T12:28:51;49.85;;;22.90;;
69083;SDS011;56185;48.526;9.044;2022-12-18T12:33:56;57.77;;;24.63;;
69083;SDS011;56185;48.526;9.044;2022-12-18T12:39:12;54.67;;;22.48;;
69083;SDS011;56185;48.526;9.044;2022-12-18T12:41:41;48.22;;;22.77;;
69083;SDS011;56185;48.526;9.044;2022-12-18T12:44:11;48.70;;;21.15;;
69083;SDS011;56185;48.526;9.044;2022-12-18T13:15:21;56.58;;;24.63;;
69083;SDS011;56185;48.526;9.044;2022-12-18T13:17:47;54.17;;;24.10;;
69083;SDS011;56185;48.526;9.044;2022-12-18T13:20:13;52.28;;;25.70;;
69083;SDS011;56185;48.526;9.044;2022-12-18T13:22:44;54.80;;;24.95;;
69083;SDS011;56185;48.526;9.044;2022-12-18T13:28:49;55.83;;;23.80;;
69083;SDS011;56185;48.526;9.044;2022-12-18T13:31:06;52.97;;;24.42;;
69083;SDS011;56185;48.526;9.044;2022-12-18T13:33:45;60.33;;;27.48;;
69083;SDS011;56185;48.526;9.044;2022-12-18T13:36:27;58.47;;;25.65;;
69083;SDS011;56185;48.526;9.044;2022-12-18T13:39:11;56.05;;;24.85;;
69083;SDS011;56185;48.526;9.044;2022-12-18T13:41:40;63.92;;;28.02;;
69083;SDS011;56185;48.526;9.044;2022-12-18T13:44:13;68.50;;;29.13;;
69083;SDS011;56185;48.526;9.044;2022-12-18T13:46:55;62.63;;;27.13;;
69083;SDS011;56185;48.526;9.044;2022-12-18T13:49:23;60.33;;;26.95;;
69083;SDS011;56185;48.526;9.044;2022-12-18T13:51:55;59.15;;;25.75;;
69083;SDS011;56185;48.526;9.044;2022-12-18T13:57:00;52.22;;;24.52;;
69083;SDS011;56185;48.526;9.044;2022-12-18T13:59:36;49.22;;;24.85;;
69083;SDS011;56185;48.526;9.044;2022-12-18T14:04:41;50.10;;;24.05;;
69083;SDS011;56185;48.526;9.044;2022-12-18T14:07:16;53.78;;;24.92;;
69083;SDS011;56185;48.526;9.044;2022-12-18T14:09:49;50.17;;;24.55;;
69083;SDS011;56185;48.526;9.044;2022-12-18T14:12:20;46.35;;;25.17;;
69083;SDS011;56185;48.526;9.044;2022-12-18T14:14:49;52.58;;;26.90;;
69083;SDS011;56185;48.526;9.044;2022-12-18T14:17:16;54.05;;;25.40;;
69083;SDS011;56185;48.526;9.044;2022-12-18T14:19:43;57.25;;;26.10;;
69083;SDS011;56185;48.526;9.044;2022-12-18T14:22:20;50.90;;;25.92;;
69083;SDS011;56185;48.526;9.044;2022-12-18T14:24:58;50.95;;;25.33;;
69083;SDS011;56185;48.526;9.044;2022-12-18T14:27:36;52.03;;;24.80;;
69083;SDS011;56185;48.526;9.044;2022-12-18T14:30:15;53.40;;;25.45;;
69083;SDS011;56185;48.526;9.044;2022-12-18T14:33:03;51.55;;;25.27;;
69083;SDS011;56185;48.526;9.044;2022-12-18T14:35:42;55.55;;;25.90;;
69083;SDS011;56185;48.526;9.044;2022-12-18T14:40:45;51.63;;;25.00;;
69083;SDS011;56185;48.526;9.044;2022-12-18T14:43:10;52.35;;;25.33;;
69083;SDS011;56185;48.526;9.044;2022-12-18T14:45:37;54.53;;;26.67;;
69083;SDS011;56185;48.526;9.044;2022-12-18T14:48:07;64.07;;;27.40;;
69083;SDS011;56185;48.526;9.044;2022-12-18T14:50:36;57.30;;;27.33;;
69083;SDS011;56185;48.526;9.044;2022-12-18T14:53:02;53.70;;;26.67;;
69083;SDS011;56185;48.526;9.044;2022-12-18T14:55:27;56.88;;;27.77;;
69083;SDS011;56185;48.526;9.044;2022-12-18T14:57:53;57.03;;;26.80;;
69083;SDS011;56185;48.526;9.044;2022-12-18T15:00:21;58.67;;;27.50;;
69083;SDS011;56185;48.526;9.044;2022-12-18T15:02:50;55.75;;;27.52;;
69083;SDS011;56185;48.526;9.044;2022-12-18T15:05:26;52.38;;;26.67;;
69083;SDS011;56185;48.526;9.044;2022-12-18T15:07:54;53.65;;;25.55;;
69083;SDS011;56185;48.526;9.044;2022-12-18T15:18:00;52.20;;;26.27;;
69083;SDS011;56185;48.526;9.044;2022-12-18T15:20:27;60.72;;;28.65;;
69083;SDS011;56185;48.526;9.044;2022-12-18T15:22:53;63.40;;;30.10;;
69083;SDS011;56185;48.526;9.044;2022-12-18T15:28:21;56.28;;;28.77;;
69083;SDS011;56185;48.526;9.044;2022-12-18T15:30:59;53.60;;;27.30;;
69083;SDS011;56185;48.526;9.044;2022-12-18T15:33:34;54.45;;;27.65;;
69083;SDS011;56185;48.526;9.044;2022-12-18T15:36:02;54.95;;;26.08;;
69083;SDS011;56185;48.526;9.044;2022-12-18T15:38:29;54.00;;;26.17;;
69083;SDS011;56185;48.526;9.044;2022-12-18T15:40:55;51.15;;;25.25;;
69083;SDS011;56185;48.526;9.044;2022-12-18T15:43:21;49.53;;;24.83;;
69083;SDS011;56185;48.526;9.044;2022-12-18T15:45:47;58.67;;;26.67;;
69083;SDS011;56185;48.526;9.044;2022-12-18T15:48:22;62.90;;;30.63;;
69083;SDS011;56185;48.526;9.044;2022-12-18T15:50:48;66.40;;;30.92;;
69083;SDS011;56185;48.526;9.044;2022-12-18T15:53:18;66.75;;;31.08;;
69083;SDS011;56185;48.526;9.044;2022-12-18T15:55:44;60.85;;;29.92;;
69083;SDS011;56185;48.526;9.044;2022-12-18T15:58:12;63.65;;;31.25;;
69083;SDS011;56185;48.526;9.044;2022-12-18T16:00:38;65.68;;;31.83;;
69083;SDS011;56185;48.526;9.044;2022-12-18T16:03:04;70.68;;;33.40;;
69083;SDS011;56185;48.526;9.044;2022-12-18T16:05:30;77.47;;;34.72;;
69083;SDS011;56185;48.526;9.044;2022-12-18T16:07:56;73.28;;;35.78;;
69083;SDS011;56185;48.526;9.044;2022-12-18T16:10:21;71.15;;;32.40;;
69083;SDS011;56185;48.526;9.044;2022-12-18T16:12:46;78.57;;;34.83;;
69083;SDS011;56185;48.526;9.044;2022-12-18T16:15:13;76.38;;;33.47;;
69083;SDS011;56185;48.526;9.044;2022-12-18T16:17:40;73.18;;;33.33;;
69083;SDS011;56185;48.526;9.044;2022-12-18T16:20:06;75.00;;;33.72;;
69083;SDS011;56185;48.526;9.044;2022-12-18T16:22:42;71.95;;;32.58;;
69083;SDS011;56185;48.526;9.044;2022-12-18T16:25:10;74.18;;;32.05;;